createdAt,value
2022-10-28T00:01:16.232Z,12.30
2022-10-28T00:03:46.452Z,12.20
2022-10-28T00:06:16.764Z,12.20
2022-10-28T00:08:45.160Z,12.20
2022-10-28T00:11:17.551Z,12.20
2022-10-28T00:13:46.764Z,12.20
2022-10-28T00:16:16.727Z,12.10
2022-10-28T00:18:45.004Z,12.10
2022-10-28T00:21:16.863Z,12.20
2022-10-28T00:23:45.287Z,12.10
2022-10-28T00:26:17.169Z,12.20
2022-10-28T00:28:47.435Z,12.20
2022-10-28T00:31:17.982Z,12.10
2022-10-28T00:33:46.494Z,12.10
2022-10-28T00:36:17.418Z,12.20
2022-10-28T00:38:46.943Z,12.10
2022-10-28T00:41:19.019Z,12.10
2022-10-28T00:43:50.254Z,12.10
2022-10-28T00:46:24.967Z,12.10
2022-10-28T00:48:56.617Z,12.10
2022-10-28T00:51:26.280Z,12.10
2022-10-28T00:53:56.136Z,12.10
2022-10-28T00:56:29.416Z,12.10
2022-10-28T00:58:59.369Z,12.10
2022-10-28T01:01:27.609Z,12.10
2022-10-28T01:03:57.828Z,12.10
2022-10-28T01:06:27.652Z,12.10
2022-10-28T01:08:59.086Z,12.10
2022-10-28T01:11:46.586Z,12.10
2022-10-28T01:14:32.011Z,12.00
2022-10-28T01:17:13.864Z,12.00
2022-10-28T01:20:08.631Z,12.00
2022-10-28T01:22:43.153Z,12.00
2022-10-28T01:25:53.848Z,11.90
2022-10-28T01:28:52.700Z,12.00
2022-10-28T01:31:32.855Z,11.90
2022-10-28T01:34:11.648Z,11.90
2022-10-28T01:36:47.552Z,11.90
2022-10-28T01:39:25.737Z,11.80
2022-10-28T01:41:57.716Z,11.80
2022-10-28T01:44:31.886Z,11.80
2022-10-28T01:47:09.887Z,11.80
2022-10-28T01:49:42.720Z,11.70
2022-10-28T01:52:15.579Z,11.80
2022-10-28T01:54:46.999Z,11.80
2022-10-28T01:57:17.381Z,11.80
2022-10-28T01:59:48.389Z,11.80
2022-10-28T02:02:19.622Z,11.70
2022-10-28T02:04:47.845Z,11.80
2022-10-28T02:07:16.666Z,11.80
2022-10-28T02:09:55.534Z,11.70
2022-10-28T02:12:29.830Z,11.80
2022-10-28T02:15:27.763Z,11.80
2022-10-28T02:18:10.888Z,11.80
2022-10-28T02:20:47.093Z,11.80
2022-10-28T02:23:23.336Z,11.80
2022-10-28T02:25:58.026Z,11.70
2022-10-28T02:28:34.268Z,11.80
2022-10-28T02:31:06.538Z,11.70
2022-10-28T02:33:39.778Z,11.70
2022-10-28T02:36:13.066Z,11.80
2022-10-28T02:38:47.424Z,11.70
2022-10-28T02:41:21.710Z,11.70
2022-10-28T02:43:55.048Z,11.70
2022-10-28T02:46:24.572Z,11.70
2022-10-28T02:48:55.881Z,11.70
2022-10-28T02:51:30.736Z,11.70
2022-10-28T02:54:03.707Z,11.80
2022-10-28T02:56:36.405Z,11.80
2022-10-28T02:59:04.855Z,11.80
2022-10-28T03:01:33.057Z,11.80
2022-10-28T03:04:03.390Z,11.80
2022-10-28T03:06:31.708Z,11.80
2022-10-28T03:09:00.101Z,11.80
2022-10-28T03:11:28.513Z,11.90
2022-10-28T03:13:56.769Z,11.90
2022-10-28T03:16:26.746Z,11.90
2022-10-28T03:18:55.185Z,11.90
2022-10-28T03:21:25.041Z,11.90
2022-10-28T03:23:53.240Z,11.80
2022-10-28T03:26:21.530Z,11.80
2022-10-28T03:28:49.882Z,11.80
2022-10-28T03:31:18.095Z,11.80
2022-10-28T03:33:46.179Z,11.80
2022-10-28T03:36:14.288Z,11.80
2022-10-28T03:38:43.904Z,11.80
2022-10-28T03:41:12.097Z,11.80
2022-10-28T03:43:40.259Z,11.80
2022-10-28T03:46:08.472Z,11.80
2022-10-28T03:48:36.780Z,11.80
2022-10-28T03:51:04.987Z,11.80
2022-10-28T03:53:33.158Z,11.80
2022-10-28T03:56:04.575Z,11.70
2022-10-28T03:58:35.103Z,11.70
2022-10-28T04:01:05.851Z,11.70
2022-10-28T04:03:34.069Z,11.80
2022-10-28T04:06:02.356Z,11.70
2022-10-28T04:08:30.483Z,11.70
2022-10-28T04:10:58.575Z,11.70
2022-10-28T04:13:28.279Z,11.70
2022-10-28T04:15:56.813Z,11.70
2022-10-28T04:18:25.125Z,11.80
2022-10-28T04:20:53.302Z,11.80
2022-10-28T04:23:21.498Z,11.80
2022-10-28T04:25:53.327Z,11.80
2022-10-28T04:28:22.303Z,11.80
2022-10-28T04:30:51.864Z,11.80
2022-10-28T04:33:20.225Z,11.70
2022-10-28T04:35:48.399Z,11.80
2022-10-28T04:38:16.615Z,11.80
2022-10-28T04:40:44.888Z,11.80
2022-10-28T04:43:13.103Z,11.80
2022-10-28T04:45:41.241Z,11.80
2022-10-28T04:48:11.615Z,11.80
2022-10-28T04:50:40.234Z,11.70
2022-10-28T04:53:08.588Z,11.70
2022-10-28T04:55:36.736Z,11.70
2022-10-28T04:58:05.272Z,11.60
2022-10-28T05:00:33.512Z,11.60
2022-10-28T05:03:03.236Z,11.60
2022-10-28T05:05:32.989Z,11.60
2022-10-28T05:08:02.583Z,11.60
2022-10-28T05:10:31.470Z,11.60
2022-10-28T05:12:59.632Z,11.60
2022-10-28T05:15:27.991Z,11.60
2022-10-28T05:17:56.559Z,11.60
2022-10-28T05:20:25.277Z,11.50
2022-10-28T05:22:57.278Z,11.50
2022-10-28T05:25:25.940Z,11.50
2022-10-28T05:27:54.297Z,11.50
2022-10-28T05:30:22.453Z,11.50
2022-10-28T05:32:53.002Z,11.40
2022-10-28T05:35:23.599Z,11.50
2022-10-28T05:37:51.764Z,11.50
2022-10-28T05:40:22.270Z,11.50
2022-10-28T05:42:50.556Z,11.50
2022-10-28T05:45:19.087Z,11.50
2022-10-28T05:47:48.265Z,11.50
2022-10-28T05:50:19.387Z,11.50
2022-10-28T05:52:48.776Z,11.50
2022-10-28T05:55:20.785Z,11.50
2022-10-28T05:57:58.489Z,11.50
2022-10-28T06:00:27.459Z,11.50
2022-10-28T06:03:04.000Z,11.40
2022-10-28T06:05:32.195Z,11.40
2022-10-28T06:08:00.372Z,11.50
2022-10-28T06:10:28.635Z,11.40
2022-10-28T06:12:56.912Z,11.40
2022-10-28T06:15:25.506Z,11.50
2022-10-28T06:17:53.759Z,11.50
2022-10-28T06:20:22.341Z,11.50
2022-10-28T06:22:51.162Z,11.50
2022-10-28T06:25:21.321Z,11.50
2022-10-28T06:27:53.548Z,11.50
2022-10-28T06:30:25.173Z,11.40
2022-10-28T06:32:55.740Z,11.50
2022-10-28T06:35:24.234Z,11.40
2022-10-28T06:37:54.589Z,11.40
2022-10-28T06:40:27.757Z,11.40
2022-10-28T06:42:59.762Z,11.40
2022-10-28T06:45:29.985Z,11.40
2022-10-28T06:48:00.423Z,11.40
2022-10-28T06:50:29.470Z,11.40
2022-10-28T06:52:58.349Z,11.40
2022-10-28T06:55:27.041Z,11.50
2022-10-28T06:57:56.264Z,11.50
2022-10-28T07:00:24.735Z,11.40
2022-10-28T07:02:55.679Z,11.40
2022-10-28T07:05:26.628Z,11.40
2022-10-28T07:07:55.730Z,11.40
2022-10-28T07:10:24.339Z,11.40
2022-10-28T07:12:54.181Z,11.40
2022-10-28T07:15:22.926Z,11.40
2022-10-28T07:17:55.917Z,11.50
2022-10-28T07:20:32.109Z,11.50
2022-10-28T07:23:01.691Z,11.50
2022-10-28T07:25:31.815Z,11.50
2022-10-28T07:28:00.490Z,11.50
2022-10-28T07:30:29.651Z,11.50
2022-10-28T07:33:01.225Z,11.50
2022-10-28T07:35:30.239Z,11.60
2022-10-28T07:38:01.175Z,11.60
2022-10-28T07:40:35.533Z,11.70
2022-10-28T07:43:03.701Z,11.70
2022-10-28T07:45:32.339Z,11.70
2022-10-28T07:48:02.053Z,11.80
2022-10-28T07:50:30.371Z,11.80
2022-10-28T07:52:58.555Z,11.80
2022-10-28T07:55:27.239Z,11.80
2022-10-28T07:57:55.905Z,11.80
2022-10-28T08:00:24.469Z,11.80
2022-10-28T08:02:52.738Z,11.80
2022-10-28T08:05:22.346Z,11.80
2022-10-28T08:07:50.489Z,11.80
2022-10-28T08:10:18.845Z,11.90
2022-10-28T08:12:47.202Z,11.90
2022-10-28T08:15:16.819Z,11.90
2022-10-28T08:17:45.115Z,11.90
2022-10-28T08:20:13.278Z,12.00
2022-10-28T08:22:43.021Z,12.00
2022-10-28T08:25:11.421Z,12.00
2022-10-28T08:27:42.185Z,12.00
2022-10-28T08:30:13.710Z,12.10
2022-10-28T08:32:42.083Z,12.00
2022-10-28T08:35:11.106Z,12.00
2022-10-28T08:37:39.385Z,11.90
2022-10-28T08:40:14.493Z,11.90
2022-10-28T08:42:47.593Z,12.00
2022-10-28T08:45:28.021Z,12.00
2022-10-28T08:48:04.744Z,12.00
2022-10-28T08:50:39.344Z,12.10
2022-10-28T08:53:17.696Z,12.10
2022-10-28T08:55:48.757Z,12.10
2022-10-28T08:58:22.957Z,12.10
2022-10-28T09:00:54.302Z,12.10
2022-10-28T09:03:29.097Z,12.10
2022-10-28T09:06:02.629Z,12.00
2022-10-28T09:08:36.547Z,12.00
2022-10-28T09:11:46.815Z,12.00
2022-10-28T09:14:27.072Z,12.00
2022-10-28T09:17:06.149Z,12.00
2022-10-28T09:19:45.261Z,12.10
2022-10-28T09:22:27.137Z,12.20
2022-10-28T09:25:02.060Z,12.10
2022-10-28T09:27:51.294Z,12.20
2022-10-28T09:30:33.812Z,12.20
2022-10-28T09:33:17.314Z,12.20
2022-10-28T09:35:48.573Z,12.20
2022-10-28T09:38:26.546Z,12.20
2022-10-28T09:40:57.881Z,12.20
2022-10-28T09:43:34.068Z,12.30
2022-10-28T09:46:07.858Z,12.30
2022-10-28T09:48:38.763Z,12.30
2022-10-28T09:51:07.149Z,12.30
2022-10-28T09:53:43.011Z,12.30
2022-10-28T09:56:11.949Z,12.30
2022-10-28T09:58:46.028Z,12.20
2022-10-28T10:01:14.660Z,12.20
2022-10-28T10:03:43.666Z,12.30
2022-10-28T10:06:15.483Z,12.30
2022-10-28T10:08:44.734Z,12.30
2022-10-28T10:11:25.666Z,12.30
2022-10-28T10:13:56.499Z,12.30
2022-10-28T10:16:29.998Z,12.40
2022-10-28T10:19:01.107Z,12.50
2022-10-28T10:21:45.874Z,12.50
2022-10-28T10:24:30.260Z,12.50
2022-10-28T10:27:01.289Z,12.50
2022-10-28T10:29:32.351Z,12.50
2022-10-28T10:32:17.979Z,12.60
2022-10-28T10:34:53.783Z,12.60
2022-10-28T10:37:24.011Z,12.60
2022-10-28T10:40:20.822Z,12.50
2022-10-28T10:43:09.656Z,12.60
2022-10-28T10:45:39.118Z,12.60
2022-10-28T10:48:15.360Z,12.60
2022-10-28T10:50:45.349Z,12.60
2022-10-28T10:53:25.026Z,12.60
2022-10-28T10:55:56.829Z,12.70
2022-10-28T10:58:28.043Z,12.70
2022-10-28T11:00:59.868Z,12.70
2022-10-28T11:03:32.007Z,12.80
2022-10-28T11:08:55.351Z,12.90
2022-10-28T11:11:32.248Z,13.00
2022-10-28T11:14:07.204Z,13.10
2022-10-28T11:16:48.755Z,13.10
2022-10-28T11:19:22.094Z,13.10
2022-10-28T11:22:13.699Z,13.20
2022-10-28T11:25:04.186Z,13.20
2022-10-28T11:27:51.668Z,13.20
2022-10-28T11:30:30.536Z,13.20
2022-10-28T11:33:28.777Z,13.30
2022-10-28T11:36:04.544Z,13.20
2022-10-28T11:39:02.979Z,13.20
2022-10-28T11:41:45.559Z,13.30
2022-10-28T11:44:28.230Z,13.30
2022-10-28T11:47:06.245Z,13.30
2022-10-28T11:50:18.199Z,13.30
2022-10-28T11:53:13.689Z,13.30
2022-10-28T11:55:48.361Z,13.20
2022-10-28T11:58:24.907Z,13.30
2022-10-28T12:01:02.946Z,13.20
2022-10-28T12:03:46.874Z,13.20
2022-10-28T12:06:25.206Z,13.30
2022-10-28T12:09:08.477Z,13.30
2022-10-28T12:14:33.924Z,13.30
2022-10-28T12:17:14.196Z,13.30
2022-10-28T12:19:49.664Z,13.40
2022-10-28T12:22:27.483Z,13.40
2022-10-28T12:24:58.151Z,13.40
2022-10-28T12:27:32.107Z,13.40
2022-10-28T12:30:04.664Z,13.40
2022-10-28T12:32:36.543Z,13.50
2022-10-28T12:35:09.626Z,13.50
2022-10-28T12:37:46.226Z,13.40
2022-10-28T12:40:21.376Z,13.40
2022-10-28T12:42:57.534Z,13.40
2022-10-28T12:45:26.068Z,13.40
2022-10-28T12:48:00.016Z,13.30
2022-10-28T12:50:32.373Z,13.30
2022-10-28T12:53:18.189Z,13.20
2022-10-28T12:55:51.901Z,13.20
2022-10-28T12:58:25.987Z,13.20
2022-10-28T13:00:57.727Z,13.20
2022-10-28T13:03:25.898Z,13.20
2022-10-28T13:06:06.669Z,13.10
2022-10-28T13:09:01.814Z,13.20
2022-10-28T13:12:01.323Z,13.20
2022-10-28T13:14:57.429Z,13.20
2022-10-28T13:17:40.725Z,13.30
2022-10-28T13:20:20.695Z,13.20
2022-10-28T13:23:12.840Z,13.20
2022-10-28T13:25:58.572Z,13.20
2022-10-28T13:28:36.237Z,13.20
2022-10-28T13:31:07.290Z,13.10
2022-10-28T13:33:38.299Z,13.10
2022-10-28T13:36:17.582Z,13.00
2022-10-28T13:38:52.404Z,13.10
2022-10-28T13:41:37.737Z,13.00
2022-10-28T13:44:28.214Z,13.10
2022-10-28T13:47:35.637Z,13.10
2022-10-28T13:50:23.632Z,13.10
2022-10-28T13:53:26.286Z,13.10
2022-10-28T13:55:58.934Z,13.10
2022-10-28T13:58:28.607Z,13.10
2022-10-28T14:00:56.928Z,13.10
2022-10-28T14:03:26.886Z,13.00
2022-10-28T14:05:58.691Z,13.00
2022-10-28T14:08:31.045Z,13.00
2022-10-28T14:11:05.013Z,13.00
2022-10-28T14:13:36.995Z,13.00
2022-10-28T14:16:23.907Z,13.00
2022-10-28T14:19:02.023Z,13.10
2022-10-28T14:21:48.008Z,13.10
2022-10-28T14:24:33.274Z,13.10
2022-10-28T14:27:32.267Z,13.10
2022-10-28T14:30:24.615Z,13.10
2022-10-28T14:33:17.533Z,13.10
2022-10-28T14:35:48.382Z,13.00
2022-10-28T14:38:50.874Z,13.00
2022-10-28T14:41:52.600Z,13.00
2022-10-28T14:44:53.469Z,13.00
2022-10-28T14:47:45.821Z,13.00
2022-10-28T14:50:21.508Z,12.90
2022-10-28T14:52:51.617Z,12.90
2022-10-28T14:55:23.955Z,12.90
2022-10-28T14:57:52.548Z,12.80
2022-10-28T15:00:22.875Z,12.80
2022-10-28T15:02:53.248Z,12.70
2022-10-28T15:05:24.173Z,12.70
2022-10-28T15:07:52.927Z,12.70
2022-10-28T15:10:27.399Z,12.60
2022-10-28T15:12:57.570Z,12.60
2022-10-28T15:15:27.923Z,12.60
2022-10-28T15:17:58.496Z,12.50
2022-10-28T15:20:29.596Z,12.50
2022-10-28T15:23:13.934Z,12.50
2022-10-28T15:25:42.164Z,12.50
2022-10-28T15:28:12.322Z,12.50
2022-10-28T15:30:46.523Z,12.40
2022-10-28T15:33:30.823Z,12.50
2022-10-28T15:36:16.641Z,12.40
2022-10-28T15:38:47.120Z,12.40
2022-10-28T15:41:45.090Z,12.50
2022-10-28T15:44:36.815Z,12.50
2022-10-28T15:47:26.329Z,12.50
2022-10-28T15:50:03.185Z,12.50
2022-10-28T15:52:48.116Z,12.50
2022-10-28T15:55:41.110Z,12.40
2022-10-28T15:58:39.622Z,12.40
2022-10-28T16:01:11.488Z,12.40
2022-10-28T16:03:45.103Z,12.40
2022-10-28T16:06:33.620Z,12.40
2022-10-28T16:09:05.574Z,12.30
2022-10-28T16:11:39.470Z,12.30
2022-10-28T16:14:24.680Z,12.30
2022-10-28T16:16:53.311Z,12.30
2022-10-28T16:19:29.018Z,12.30
2022-10-28T16:21:58.708Z,12.20
2022-10-28T16:24:26.803Z,12.20
2022-10-28T16:26:57.461Z,12.20
2022-10-28T16:29:29.848Z,12.10
2022-10-28T16:31:58.068Z,12.10
2022-10-28T16:34:26.607Z,12.10
2022-10-28T16:36:54.758Z,12.10
2022-10-28T16:39:24.439Z,12.10
2022-10-28T16:41:55.695Z,12.10
2022-10-28T16:44:27.012Z,12.20
2022-10-28T16:46:55.328Z,12.10
2022-10-28T16:49:23.584Z,12.10
2022-10-28T16:51:51.655Z,12.10
2022-10-28T16:54:19.844Z,12.10
2022-10-28T16:56:49.546Z,12.10
2022-10-28T16:59:17.649Z,12.00
2022-10-28T17:01:45.916Z,12.10
2022-10-28T17:04:14.300Z,12.00
2022-10-28T17:06:42.578Z,12.00
2022-10-28T17:09:10.967Z,12.10
2022-10-28T17:11:39.252Z,12.00
2022-10-28T17:14:13.037Z,12.10
2022-10-28T17:16:43.329Z,12.10
2022-10-28T17:19:11.912Z,12.10
2022-10-28T17:21:40.043Z,12.10
2022-10-28T17:24:08.733Z,12.10
2022-10-28T17:26:36.912Z,12.00
2022-10-28T17:29:05.146Z,12.10
2022-10-28T17:31:34.765Z,12.00
2022-10-28T17:34:02.975Z,12.10
2022-10-28T17:36:31.259Z,12.00
2022-10-28T17:38:59.574Z,12.00
2022-10-28T17:41:27.720Z,12.10
2022-10-28T17:43:57.866Z,12.10
2022-10-28T17:46:26.057Z,12.10
2022-10-28T17:48:55.890Z,12.00
2022-10-28T17:51:25.171Z,12.10
2022-10-28T17:53:55.757Z,12.10
2022-10-28T17:56:24.210Z,12.00
2022-10-28T17:58:54.247Z,12.00
2022-10-28T18:01:22.759Z,12.10
2022-10-28T18:03:51.517Z,12.10
2022-10-28T18:06:21.891Z,12.10
2022-10-28T18:08:57.270Z,12.00
2022-10-28T18:11:27.565Z,12.00
2022-10-28T18:13:56.453Z,12.00
2022-10-28T18:16:28.237Z,12.00
2022-10-28T18:18:56.874Z,12.00
2022-10-28T18:21:26.567Z,12.10
2022-10-28T18:24:03.624Z,12.00
2022-10-28T18:26:32.459Z,12.00
2022-10-28T18:29:10.005Z,12.00
2022-10-28T18:31:40.734Z,12.10
2022-10-28T18:34:09.491Z,12.10
2022-10-28T18:36:39.222Z,12.10
2022-10-28T18:39:08.401Z,12.10
2022-10-28T18:41:44.624Z,12.10
2022-10-28T18:44:17.098Z,12.10
2022-10-28T18:46:46.484Z,12.10
2022-10-28T18:49:14.942Z,12.10
2022-10-28T18:51:44.781Z,12.10
2022-10-28T18:54:12.996Z,12.10
2022-10-28T18:56:44.795Z,12.10
2022-10-28T18:59:17.832Z,12.10
2022-10-28T19:01:48.435Z,12.10
2022-10-28T19:04:17.492Z,12.10
2022-10-28T19:06:48.922Z,12.10
2022-10-28T19:09:19.331Z,12.00
2022-10-28T19:11:49.275Z,12.00
2022-10-28T19:14:17.554Z,12.00
2022-10-28T19:16:45.691Z,12.10
2022-10-28T19:19:13.867Z,12.10
2022-10-28T19:21:42.090Z,12.10
2022-10-28T19:24:12.003Z,12.10
2022-10-28T19:26:40.513Z,12.10
2022-10-28T19:29:08.711Z,12.10
2022-10-28T19:31:39.090Z,12.00
2022-10-28T19:34:07.409Z,12.10
2022-10-28T19:36:35.713Z,12.00
2022-10-28T19:39:04.822Z,12.00
2022-10-28T19:41:34.787Z,12.00
2022-10-28T19:44:04.136Z,12.00
2022-10-28T19:46:34.353Z,12.00
2022-10-28T19:49:05.322Z,12.10
2022-10-28T19:51:35.924Z,12.10
2022-10-28T19:54:06.020Z,12.10
2022-10-28T19:56:36.683Z,12.10
2022-10-28T19:59:06.506Z,12.10
2022-10-28T20:01:36.704Z,12.10
2022-10-28T20:04:05.620Z,12.00
2022-10-28T20:06:36.264Z,12.10
2022-10-28T20:09:05.246Z,12.10
2022-10-28T20:11:38.543Z,12.10
2022-10-28T20:14:11.817Z,12.10
2022-10-28T20:16:43.756Z,12.00
2022-10-28T20:19:12.033Z,12.10
2022-10-28T20:21:40.578Z,12.10
2022-10-28T20:24:09.863Z,12.10
2022-10-28T20:26:40.198Z,12.10
2022-10-28T20:29:09.788Z,12.10
2022-10-28T20:31:39.672Z,12.10
2022-10-28T20:34:08.512Z,12.20
2022-10-28T20:36:38.487Z,12.10
2022-10-28T20:39:09.242Z,12.10
2022-10-28T20:41:43.215Z,12.20
2022-10-28T20:44:11.643Z,12.10
2022-10-28T20:46:40.000Z,12.20
2022-10-28T20:49:09.902Z,12.10
2022-10-28T20:51:38.195Z,12.20
2022-10-28T20:54:06.699Z,12.20
2022-10-28T20:56:36.887Z,12.20
2022-10-28T20:59:07.275Z,12.20
2022-10-28T21:01:38.163Z,12.20
2022-10-28T21:04:07.984Z,12.20
2022-10-28T21:06:37.031Z,12.20
2022-10-28T21:09:05.513Z,12.20
2022-10-28T21:11:34.058Z,12.30
2022-10-28T21:14:03.083Z,12.20
2022-10-28T21:16:33.939Z,12.20
2022-10-28T21:19:03.508Z,12.30
2022-10-28T21:21:35.064Z,12.30
2022-10-28T21:24:03.820Z,12.30
2022-10-28T21:26:32.260Z,12.20
2022-10-28T21:29:00.518Z,12.30
2022-10-28T21:31:28.771Z,12.30
2022-10-28T21:34:00.709Z,12.30
2022-10-28T21:36:31.880Z,12.30
2022-10-28T21:39:00.131Z,12.30
2022-10-28T21:41:28.183Z,12.30
2022-10-28T21:43:56.359Z,12.30
2022-10-28T21:46:25.134Z,12.30
2022-10-28T21:48:53.936Z,12.30
2022-10-28T21:51:30.542Z,12.30
2022-10-28T21:53:58.649Z,12.30
2022-10-28T21:56:27.566Z,12.30
2022-10-28T21:58:55.792Z,12.40
2022-10-28T22:01:25.323Z,12.40
2022-10-28T22:03:55.775Z,12.40
2022-10-28T22:06:25.900Z,12.40
2022-10-28T22:08:54.292Z,12.40
2022-10-28T22:11:23.854Z,12.40
2022-10-28T22:13:57.955Z,12.40
2022-10-28T22:16:26.890Z,12.40
2022-10-28T22:18:55.462Z,12.40
2022-10-28T22:21:27.078Z,12.40
2022-10-28T22:23:55.730Z,12.40
2022-10-28T22:26:25.516Z,12.40
2022-10-28T22:28:55.026Z,12.40
2022-10-28T22:31:25.129Z,12.40
2022-10-28T22:33:53.338Z,12.40
2022-10-28T22:36:23.337Z,12.50
2022-10-28T22:38:53.653Z,12.50
2022-10-28T22:41:23.465Z,12.50
2022-10-28T22:43:53.667Z,12.50
2022-10-28T22:46:22.581Z,12.50
2022-10-28T22:48:50.874Z,12.50
2022-10-28T22:51:19.499Z,12.50
2022-10-28T22:53:47.941Z,12.50
2022-10-28T22:56:20.243Z,12.50
2022-10-28T22:58:48.608Z,12.40
2022-10-28T23:01:19.015Z,12.40
2022-10-28T23:03:48.743Z,12.40
2022-10-28T23:06:19.144Z,12.40
2022-10-28T23:08:47.361Z,12.40
2022-10-28T23:11:18.619Z,12.40
2022-10-28T23:13:47.135Z,12.40
2022-10-28T23:16:17.213Z,12.40
2022-10-28T23:18:45.538Z,12.40
2022-10-28T23:21:15.780Z,12.40
2022-10-28T23:23:49.723Z,12.40
2022-10-28T23:26:23.424Z,12.40
2022-10-28T23:28:52.999Z,12.40
2022-10-28T23:31:22.148Z,12.40
2022-10-28T23:33:50.711Z,12.40
2022-10-28T23:36:19.006Z,12.40
2022-10-28T23:38:47.238Z,12.30
2022-10-28T23:41:18.853Z,12.30
2022-10-28T23:43:49.429Z,12.30
2022-10-28T23:46:18.009Z,12.30
2022-10-28T23:48:46.313Z,12.30
2022-10-28T23:51:14.626Z,12.30
2022-10-28T23:53:42.850Z,12.30
2022-10-28T23:56:11.020Z,12.30
2022-10-28T23:58:39.199Z,12.30
